Time;durP1;ratioP1;P1;durP2;ratioP2;P2;SDS_P1;SDS_P2;PMS_P1;PMS_P2;Temp;Humidity;BMP_temperature;BMP_pressure;BME280_temperature;BME280_humidity;BME280_pressure;Samples;Min_cycle;Max_cycle;Signal;HPM_P1;HPM_P2
2021/01/24 12:55:00;;;;;;;1.90;1.00;;;;;;;;;;5105481;27;20319;-77
2021/01/24 12:57:26;;;;;;;2.63;1.10;;;;;;;;;;5105059;28;20050;-77
2021/01/24 12:59:52;;;;;;;2.00;1.05;;;;;;;;;;5103489;28;20026;-77
2021/01/24 13:02:19;;;;;;;3.13;1.33;;;;;;;;;;5097513;28;20027;-77
2021/01/24 13:04:45;;;;;;;2.83;1.40;;;;;;;;;;5104368;28;20120;-76
2021/01/24 13:07:12;;;;;;;3.10;1.70;;;;;;;;;;5104790;28;20122;-77
2021/01/24 13:09:38;;;;;;;2.92;1.52;;;;;;;;;;5105389;28;20031;-76
2021/01/24 13:12:05;;;;;;;3.78;1.70;;;;;;;;;;5094896;28;20085;-76
2021/01/24 13:14:31;;;;;;;3.90;1.60;;;;;;;;;;5098855;28;20454;-77
2021/01/24 13:17:00;;;;;;;2.92;1.23;;;;;;;;;;5085413;28;20063;-77
2021/01/24 13:19:26;;;;;;;3.80;1.65;;;;;;;;;;5071577;28;20027;-76
2021/01/24 13:21:52;;;;;;;3.70;1.25;;;;;;;;;;5074646;28;20020;-77
2021/01/24 13:24:18;;;;;;;3.45;1.80;;;;;;;;;;5072089;28;20055;-77
2021/01/24 13:26:44;;;;;;;3.42;1.40;;;;;;;;;;5079396;28;20492;-76
2021/01/24 13:29:10;;;;;;;2.40;1.23;;;;;;;;;;5085003;28;20029;-75
2021/01/24 13:31:36;;;;;;;2.28;1.30;;;;;;;;;;5083761;28;20033;-76
2021/01/24 13:34:02;;;;;;;4.30;1.70;;;;;;;;;;5065835;28;20120;-76
2021/01/24 13:36:28;;;;;;;2.15;1.20;;;;;;;;;;5084387;28;20044;-77
2021/01/24 13:38:54;;;;;;;3.67;1.20;;;;;;;;;;5084049;28;20012;-76
2021/01/24 13:41:20;;;;;;;4.95;1.42;;;;;;;;;;5082918;28;20890;-77
2021/01/24 13:43:46;;;;;;;2.85;1.27;;;;;;;;;;5081995;28;20024;-76
2021/01/24 13:46:12;;;;;;;3.17;1.45;;;;;;;;;;5083615;28;20453;-75
2021/01/24 13:48:38;;;;;;;3.33;1.42;;;;;;;;;;5084302;28;20024;-77
2021/01/24 13:51:04;;;;;;;3.55;1.13;;;;;;;;;;5082348;28;20032;-77
2021/01/24 13:53:30;;;;;;;2.22;1.10;;;;;;;;;;5082878;28;20124;-76
2021/01/24 13:55:57;;;;;;;2.88;1.23;;;;;;;;;;5084209;28;20170;-76
2021/01/24 13:58:23;;;;;;;4.57;1.50;;;;;;;;;;5082548;28;20024;-76
2021/01/24 14:00:49;;;;;;;2.53;1.15;;;;;;;;;;5083893;28;20033;-77
2021/01/24 14:03:15;;;;;;;1.83;1.00;;;;;;;;;;5083657;28;20382;-77
2021/01/24 14:05:41;;;;;;;2.60;1.02;;;;;;;;;;5074978;28;20089;-77
2021/01/24 14:08:07;;;;;;;4.05;1.60;;;;;;;;;;5066502;28;20021;-77
2021/01/24 14:10:33;;;;;;;1.95;0.90;;;;;;;;;;5069204;28;20032;-77
2021/01/24 14:13:00;;;;;;;2.40;1.00;;;;;;;;;;5071710;28;20547;-76
2021/01/24 14:15:26;;;;;;;1.35;0.90;;;;;;;;;;5070187;28;20021;-78
2021/01/24 14:17:52;;;;;;;1.73;0.88;;;;;;;;;;5070706;28;20023;-77
2021/01/24 14:20:18;;;;;;;1.70;0.80;;;;;;;;;;5068281;28;20036;-77
2021/01/24 14:22:44;;;;;;;2.33;1.00;;;;;;;;;;5070176;28;20520;-77
2021/01/24 14:25:10;;;;;;;1.48;0.80;;;;;;;;;;5070646;28;20064;-76
2021/01/24 14:27:36;;;;;;;1.05;0.70;;;;;;;;;;5069658;28;20025;-77
2021/01/24 14:30:03;;;;;;;1.88;1.13;;;;;;;;;;5068248;28;20078;-77
2021/01/24 14:32:29;;;;;;;1.67;0.88;;;;;;;;;;5069665;28;20112;-77
2021/01/24 14:34:55;;;;;;;1.70;0.98;;;;;;;;;;5069392;28;20208;-77
2021/01/24 14:37:21;;;;;;;2.40;0.90;;;;;;;;;;5069746;28;20020;-77
2021/01/24 14:39:47;;;;;;;3.47;1.05;;;;;;;;;;5070979;28;20029;-77
2021/01/24 14:42:13;;;;;;;1.63;0.80;;;;;;;;;;5068760;28;20068;-77
2021/01/24 14:44:39;;;;;;;2.28;1.13;;;;;;;;;;5069959;28;20107;-77
2021/01/24 14:47:05;;;;;;;1.40;0.80;;;;;;;;;;5069561;28;20648;-77
2021/01/24 14:49:31;;;;;;;1.73;0.80;;;;;;;;;;5068976;28;20070;-77
2021/01/24 14:51:57;;;;;;;3.17;0.80;;;;;;;;;;5069374;28;20033;-77
2021/01/24 14:54:23;;;;;;;3.45;0.90;;;;;;;;;;5050643;28;20028;-77
2021/01/24 14:56:49;;;;;;;4.75;1.10;;;;;;;;;;5073418;28;20539;-76
2021/01/24 14:59:15;;;;;;;3.22;0.80;;;;;;;;;;5072992;28;20027;-77
2021/01/24 15:01:41;;;;;;;2.35;0.95;;;;;;;;;;5072023;28;20358;-77
2021/01/24 15:04:09;;;;;;;2.28;1.00;;;;;;;;;;5072345;28;20027;-76
2021/01/24 15:06:35;;;;;;;2.67;1.17;;;;;;;;;;5072437;28;20377;-76
2021/01/24 15:09:01;;;;;;;1.35;0.75;;;;;;;;;;5071893;28;20028;-77
2021/01/24 15:11:27;;;;;;;3.25;0.75;;;;;;;;;;5071633;28;20374;-76
2021/01/24 15:13:53;;;;;;;2.00;1.00;;;;;;;;;;5071984;28;20032;-76
2021/01/24 15:16:19;;;;;;;1.38;0.90;;;;;;;;;;5073089;28;20044;-76
2021/01/24 15:18:48;;;;;;;1.58;0.90;;;;;;;;;;5072441;28;20029;-77
2021/01/24 15:21:14;;;;;;;2.28;1.10;;;;;;;;;;5068285;28;20028;-77
2021/01/24 15:23:40;;;;;;;3.63;1.75;;;;;;;;;;5071774;28;20032;-77
2021/01/24 15:26:06;;;;;;;2.33;1.40;;;;;;;;;;5072433;28;20056;-77
2021/01/24 15:28:32;;;;;;;5.18;1.08;;;;;;;;;;5072379;28;20035;-76
2021/01/24 15:30:58;;;;;;;2.83;1.10;;;;;;;;;;5072302;28;20075;-77
2021/01/24 15:33:24;;;;;;;4.55;2.40;;;;;;;;;;5071290;28;20037;-77
2021/01/24 15:35:50;;;;;;;4.70;1.92;;;;;;;;;;5079545;28;20024;-76
2021/01/24 15:38:16;;;;;;;2.53;1.40;;;;;;;;;;5092672;28;20477;-77
2021/01/24 15:40:42;;;;;;;3.13;1.20;;;;;;;;;;5092218;28;20107;-76
2021/01/24 15:43:08;;;;;;;3.17;1.13;;;;;;;;;;5079825;28;20086;-76
2021/01/24 15:45:34;;;;;;;2.85;0.90;;;;;;;;;;5070333;28;20024;-76
2021/01/24 15:48:00;;;;;;;2.10;1.23;;;;;;;;;;5070430;28;20028;-76
2021/01/24 15:50:27;;;;;;;3.20;1.40;;;;;;;;;;5072846;28;20028;-76
2021/01/24 15:52:53;;;;;;;2.92;1.10;;;;;;;;;;5089133;28;20043;-77
2021/01/24 15:55:19;;;;;;;6.07;4.85;;;;;;;;;;5092495;28;20016;-76
2021/01/24 15:57:45;;;;;;;3.38;1.98;;;;;;;;;;5090395;28;20027;-77
2021/01/24 16:00:11;;;;;;;3.30;1.38;;;;;;;;;;5091936;28;20020;-76
2021/01/24 16:02:37;;;;;;;4.88;1.55;;;;;;;;;;5091282;28;20032;-76
2021/01/24 16:05:04;;;;;;;3.45;1.40;;;;;;;;;;5091952;28;20028;-76
2021/01/24 16:07:30;;;;;;;3.13;1.23;;;;;;;;;;5091747;28;20032;-76
2021/01/24 16:09:56;;;;;;;2.78;0.98;;;;;;;;;;5091852;28;20430;-76
2021/01/24 16:12:22;;;;;;;3.30;1.00;;;;;;;;;;5080920;28;20066;-76
2021/01/24 16:14:48;;;;;;;3.63;1.10;;;;;;;;;;5071542;28;20132;-76
2021/01/24 16:17:14;;;;;;;2.25;1.13;;;;;;;;;;5065679;28;20530;-76
2021/01/24 16:19:40;;;;;;;2.20;1.15;;;;;;;;;;5068733;28;20436;-76
2021/01/24 16:22:06;;;;;;;3.22;1.88;;;;;;;;;;5062782;28;20473;-77
2021/01/24 16:24:32;;;;;;;2.55;0.90;;;;;;;;;;5060472;28;20032;-77
2021/01/24 16:26:58;;;;;;;2.70;1.20;;;;;;;;;;5071081;28;20028;-76
2021/01/24 16:29:25;;;;;;;1.92;1.00;;;;;;;;;;5078695;28;20115;-77
2021/01/24 16:31:51;;;;;;;3.33;1.30;;;;;;;;;;5090082;28;20063;-76
2021/01/24 16:34:17;;;;;;;9.10;1.95;;;;;;;;;;5090261;28;20826;-76
2021/01/24 16:36:43;;;;;;;2.45;1.38;;;;;;;;;;5083305;28;20435;-76
2021/01/24 16:39:09;;;;;;;2.92;1.60;;;;;;;;;;5070473;28;20027;-77
2021/01/24 16:41:35;;;;;;;6.07;1.35;;;;;;;;;;5070376;28;20091;-76
2021/01/24 16:44:01;;;;;;;4.45;1.30;;;;;;;;;;5070269;28;20024;-76
2021/01/24 16:46:28;;;;;;;3.05;1.17;;;;;;;;;;5072516;28;20413;-76
2021/01/24 16:48:54;;;;;;;2.90;1.30;;;;;;;;;;5072028;28;20431;-76
2021/01/24 16:51:20;;;;;;;3.17;1.50;;;;;;;;;;5071206;28;20052;-76
2021/01/24 16:53:46;;;;;;;6.85;1.55;;;;;;;;;;5070083;28;20385;-75
2021/01/24 16:56:12;;;;;;;3.70;1.55;;;;;;;;;;5067472;28;20036;-75
2021/01/24 16:58:39;;;;;;;2.80;1.48;;;;;;;;;;5060135;28;20099;-76
2021/01/24 17:01:05;;;;;;;2.17;1.08;;;;;;;;;;5060777;28;20022;-75
2021/01/24 17:03:31;;;;;;;2.83;1.30;;;;;;;;;;5063292;28;20063;-75
2021/01/24 17:05:57;;;;;;;4.43;1.63;;;;;;;;;;5059107;28;20028;-76
2021/01/24 17:08:23;;;;;;;4.00;1.90;;;;;;;;;;5060898;28;20028;-76
2021/01/24 17:10:49;;;;;;;8.13;2.60;;;;;;;;;;5058999;28;20517;-76
2021/01/24 17:13:17;;;;;;;8.25;2.85;;;;;;;;;;5059796;28;20507;-76
2021/01/24 17:15:43;;;;;;;5.70;2.90;;;;;;;;;;5058160;28;20013;-75
2021/01/24 17:18:09;;;;;;;12.90;6.55;;;;;;;;;;5050839;28;20096;-76
2021/01/24 17:20:36;;;;;;;7.28;4.43;;;;;;;;;;5063226;28;20031;-77
2021/01/24 17:23:02;;;;;;;8.10;4.45;;;;;;;;;;5090138;28;20040;-76
2021/01/24 17:25:29;;;;;;;15.98;8.30;;;;;;;;;;5090830;28;20024;-76
2021/01/24 17:27:56;;;;;;;11.15;6.07;;;;;;;;;;5073940;28;20036;-76
2021/01/24 17:30:22;;;;;;;14.13;7.03;;;;;;;;;;5059497;28;20127;-76
2021/01/24 17:32:48;;;;;;;17.30;8.45;;;;;;;;;;5060503;28;20021;-77
2021/01/24 17:35:14;;;;;;;16.58;8.40;;;;;;;;;;5059200;28;20450;-76
2021/01/24 17:37:40;;;;;;;15.98;8.82;;;;;;;;;;5059940;28;20048;-77
2021/01/24 17:40:07;;;;;;;16.48;8.73;;;;;;;;;;5059276;28;20401;-76
2021/01/24 17:42:33;;;;;;;16.50;6.35;;;;;;;;;;5062538;28;20555;-76
2021/01/24 17:44:59;;;;;;;12.40;7.28;;;;;;;;;;5062459;28;20037;-76
2021/01/24 17:47:26;;;;;;;13.10;6.50;;;;;;;;;;5065922;28;20028;-77
2021/01/24 17:49:52;;;;;;;12.30;6.40;;;;;;;;;;5056666;28;20038;-76
2021/01/24 17:52:18;;;;;;;15.90;8.52;;;;;;;;;;5053166;28;20108;-76
2021/01/24 17:54:44;;;;;;;19.20;9.23;;;;;;;;;;5087538;28;20056;-76
2021/01/24 17:57:10;;;;;;;18.15;10.80;;;;;;;;;;5094130;28;20024;-75
2021/01/24 17:59:36;;;;;;;18.95;11.10;;;;;;;;;;5093790;28;20020;-75
2021/01/24 18:02:08;;;;;;;15.63;8.90;;;;;;;;;;5087749;28;20497;-75
2021/01/24 18:04:35;;;;;;;18.42;10.63;;;;;;;;;;5073689;28;20678;-75
2021/01/24 18:07:01;;;;;;;22.23;13.57;;;;;;;;;;5073567;28;20430;-77
2021/01/24 18:09:27;;;;;;;20.58;11.55;;;;;;;;;;5073726;28;20028;-75
2021/01/24 18:11:53;;;;;;;24.38;11.00;;;;;;;;;;5074498;28;20047;-75
2021/01/24 18:14:19;;;;;;;34.08;17.73;;;;;;;;;;5072776;28;20032;-76
2021/01/24 18:16:45;;;;;;;38.65;19.75;;;;;;;;;;5073590;28;20052;-76
2021/01/24 18:19:11;;;;;;;32.10;17.45;;;;;;;;;;5073813;28;20028;-75
2021/01/24 18:21:37;;;;;;;32.10;16.70;;;;;;;;;;5072933;28;20094;-75
2021/01/24 18:24:04;;;;;;;31.27;15.73;;;;;;;;;;5072766;28;20435;-75
2021/01/24 18:26:30;;;;;;;18.98;11.40;;;;;;;;;;5075454;28;20035;-76
2021/01/24 18:28:56;;;;;;;10.25;5.95;;;;;;;;;;5090193;28;20024;-75
2021/01/24 18:31:22;;;;;;;8.23;5.57;;;;;;;;;;5092371;28;20035;-75
2021/01/24 18:33:48;;;;;;;15.07;6.78;;;;;;;;;;5092658;28;20020;-76
2021/01/24 18:36:14;;;;;;;11.57;6.47;;;;;;;;;;5091490;28;20077;-76
2021/01/24 18:38:40;;;;;;;11.57;7.05;;;;;;;;;;5093191;28;20024;-76
2021/01/24 18:41:06;;;;;;;11.70;6.55;;;;;;;;;;5093106;28;20028;-76
2021/01/24 18:43:32;;;;;;;12.98;7.03;;;;;;;;;;5091465;28;20036;-76
2021/01/24 18:45:58;;;;;;;15.60;7.43;;;;;;;;;;5080668;28;20063;-75
2021/01/24 18:48:24;;;;;;;14.07;6.93;;;;;;;;;;5072682;28;20036;-75
2021/01/24 18:50:50;;;;;;;11.77;7.07;;;;;;;;;;5072286;28;20031;-75
